Terminal Aerodrome Forecast
Issued by NWS

Home | Current Version | Previous Version | Text Only | Print | Product List | Glossary On
Versions: 1 2 3 4 5 6 7 8 9 10 11 12 13 14 15 16 17 18 19 20 21 22 23
238
FTUS43 KMQT 230932 AAB
TAFSAW
TAF AMD
KSAW 230932Z 2310/2406 20008KT 2SM BR BKN001 WS020/23040KT
     FM231300 22007KT P6SM FEW200
     FM231500 23012KT P6SM FEW200
     FM232300 20008KT P6SM FEW250
     FM240300 21004KT P6SM FEW200=

USA.gov is the U.S. government's official web portal to all federal, state and local government web resources and services.